createdAt,value
2019-02-19T00:03:04.202Z,84.83
2019-02-19T00:06:10.634Z,85.49
2019-02-19T00:09:17.016Z,85.50
2019-02-19T00:12:23.380Z,85.47
2019-02-19T00:15:29.743Z,85.72
2019-02-19T00:18:36.064Z,85.84
2019-02-19T00:21:42.507Z,86.47
2019-02-19T00:24:48.934Z,85.73
2019-02-19T00:27:55.229Z,86.14
2019-02-19T00:31:01.687Z,86.20
2019-02-19T00:34:08.031Z,86.40
2019-02-19T00:37:15.466Z,86.06
2019-02-19T00:40:21.796Z,86.18
2019-02-19T00:43:32.158Z,86.17
2019-02-19T00:46:38.435Z,86.22
2019-02-19T00:49:44.714Z,86.00
2019-02-19T00:52:51.129Z,86.52
2019-02-19T00:55:57.475Z,86.06
2019-02-19T00:59:03.903Z,85.96
2019-02-19T01:02:10.253Z,86.34
2019-02-19T01:05:16.616Z,86.56
2019-02-19T01:08:23.088Z,86.75
2019-02-19T01:11:29.592Z,86.55
2019-02-19T01:14:35.957Z,86.70
2019-02-19T01:17:42.407Z,86.38
2019-02-19T01:20:48.749Z,86.52
2019-02-19T01:23:55.248Z,86.47
2019-02-19T01:27:01.518Z,86.16
2019-02-19T01:30:10.568Z,86.16
2019-02-19T01:33:16.835Z,86.25
2019-02-19T01:36:23.265Z,86.19
2019-02-19T01:39:29.537Z,86.12
2019-02-19T01:42:35.891Z,86.15
2019-02-19T01:45:42.383Z,86.24
2019-02-19T01:48:48.650Z,86.29
2019-02-19T01:51:54.947Z,86.08
2019-02-19T01:55:01.271Z,85.82
2019-02-19T01:58:07.635Z,86.17
2019-02-19T02:01:14.105Z,85.91
2019-02-19T02:04:20.513Z,86.11
2019-02-19T02:07:26.813Z,86.03
2019-02-19T02:10:33.154Z,86.12
2019-02-19T02:13:39.497Z,85.77
2019-02-19T02:16:45.765Z,86.67
2019-02-19T02:19:52.035Z,86.67
2019-02-19T02:22:58.642Z,86.98
2019-02-19T02:26:05.022Z,86.96
2019-02-19T02:29:11.277Z,85.99
2019-02-19T02:32:17.563Z,86.56
2019-02-19T02:35:23.934Z,86.27
2019-02-19T02:38:30.177Z,86.41
2019-02-19T02:41:36.422Z,86.88
2019-02-19T02:44:42.688Z,87.13
2019-02-19T02:47:49.085Z,86.85
2019-02-19T02:50:55.350Z,87.15
2019-02-19T02:54:01.651Z,87.36
2019-02-19T02:57:08.076Z,87.55
2019-02-19T03:00:14.433Z,87.93
2019-02-19T03:03:20.742Z,88.29
2019-02-19T03:06:36.615Z,87.20
2019-02-19T03:09:43.028Z,87.69
2019-02-19T03:12:49.347Z,87.68
2019-02-19T03:16:02.237Z,88.05
2019-02-19T03:19:04.802Z,88.11
2019-02-19T03:22:11.146Z,88.34
2019-02-19T03:25:17.517Z,88.51
2019-02-19T03:28:23.881Z,88.47
2019-02-19T03:31:30.252Z,89.12
2019-02-19T03:34:36.567Z,88.94
2019-02-19T03:37:42.921Z,88.84
2019-02-19T03:40:49.265Z,88.79
2019-02-19T03:43:56.677Z,89.04
2019-02-19T03:47:02.967Z,89.69
2019-02-19T03:50:09.457Z,89.59
2019-02-19T03:53:15.720Z,89.29
2019-02-19T03:56:22.185Z,89.61
2019-02-19T03:59:28.551Z,89.12
2019-02-19T04:02:34.822Z,89.70
2019-02-19T04:05:41.224Z,89.88
2019-02-19T04:08:48.397Z,90.19
2019-02-19T04:11:54.753Z,89.64
2019-02-19T04:15:01.100Z,90.32
2019-02-19T04:18:07.526Z,90.06
2019-02-19T04:21:13.882Z,90.36
2019-02-19T04:24:20.179Z,90.30
2019-02-19T04:27:26.447Z,90.49
2019-02-19T04:30:32.785Z,90.33
2019-02-19T04:33:39.154Z,90.14
2019-02-19T04:36:45.441Z,90.19
2019-02-19T04:39:51.783Z,90.40
2019-02-19T04:42:58.167Z,90.20
2019-02-19T04:46:04.491Z,90.16
2019-02-19T04:49:10.770Z,89.80
2019-02-19T04:52:17.260Z,90.05
2019-02-19T04:55:23.782Z,89.91
2019-02-19T04:58:30.151Z,89.91
2019-02-19T05:01:36.504Z,89.81
2019-02-19T05:04:42.771Z,89.67
2019-02-19T05:07:49.108Z,89.59
2019-02-19T05:10:55.475Z,89.33
2019-02-19T05:14:01.962Z,89.35
2019-02-19T05:17:08.230Z,89.10
2019-02-19T05:20:14.485Z,89.11
2019-02-19T05:23:20.867Z,89.00
2019-02-19T05:26:27.253Z,89.03
2019-02-19T05:29:34.036Z,88.78
2019-02-19T05:32:40.331Z,88.85
2019-02-19T05:35:46.712Z,89.09
2019-02-19T05:38:53.173Z,89.09
2019-02-19T05:41:59.537Z,88.78
2019-02-19T05:45:06.321Z,88.74
2019-02-19T05:48:13.684Z,88.65
2019-02-19T05:51:20.039Z,88.51
2019-02-19T05:54:26.490Z,88.30
2019-02-19T05:57:32.845Z,88.28
2019-02-19T06:00:39.192Z,88.10
2019-02-19T06:03:45.553Z,88.24
2019-02-19T06:06:52.068Z,88.56
2019-02-19T06:09:58.474Z,88.94
2019-02-19T06:13:04.819Z,88.29
2019-02-19T06:16:11.247Z,88.78
2019-02-19T06:19:17.595Z,89.08
2019-02-19T06:22:24.044Z,89.06
2019-02-19T06:25:30.403Z,89.00
2019-02-19T06:28:36.666Z,88.91
2019-02-19T06:31:43.098Z,89.21
2019-02-19T06:34:49.368Z,88.96
2019-02-19T06:37:55.769Z,89.24
2019-02-19T06:41:02.215Z,89.05
2019-02-19T06:44:08.557Z,89.06
2019-02-19T06:47:15.288Z,88.93
2019-02-19T06:50:22.030Z,89.17
2019-02-19T06:53:28.295Z,89.70
2019-02-19T06:56:34.831Z,89.88
2019-02-19T06:59:41.174Z,89.89
2019-02-19T07:03:01.681Z,89.25
2019-02-19T07:06:08.154Z,89.08
2019-02-19T07:09:14.535Z,89.21
2019-02-19T07:12:20.973Z,89.22
2019-02-19T07:15:27.305Z,88.70
2019-02-19T07:18:33.771Z,89.24
2019-02-19T07:21:40.141Z,88.98
2019-02-19T07:24:46.517Z,89.35
2019-02-19T07:27:52.788Z,89.56
2019-02-19T07:30:59.158Z,89.41
2019-02-19T07:34:05.516Z,89.55
2019-02-19T07:37:11.870Z,89.29
2019-02-19T07:40:18.158Z,89.75
2019-02-19T07:43:24.584Z,89.42
2019-02-19T07:46:31.047Z,89.48
2019-02-19T07:49:37.362Z,88.97
2019-02-19T07:52:43.700Z,88.64
2019-02-19T07:55:50.172Z,88.44
2019-02-19T07:58:56.570Z,89.57
2019-02-19T08:02:03.129Z,89.44
2019-02-19T08:05:09.509Z,88.68
2019-02-19T08:08:15.888Z,88.02
2019-02-19T08:11:22.348Z,88.64
2019-02-19T08:14:28.700Z,88.62
2019-02-19T08:17:35.164Z,88.58
2019-02-19T08:20:41.429Z,88.36
2019-02-19T08:23:48.860Z,88.42
2019-02-19T08:26:55.152Z,88.58
2019-02-19T08:30:01.547Z,88.32
2019-02-19T08:33:07.955Z,88.20
2019-02-19T08:36:14.296Z,87.76
2019-02-19T08:39:20.790Z,87.66
2019-02-19T08:42:27.112Z,87.91
2019-02-19T08:45:33.460Z,87.84
2019-02-19T08:48:39.883Z,87.67
2019-02-19T08:51:46.277Z,87.75
2019-02-19T08:54:52.763Z,88.33
2019-02-19T08:57:59.136Z,87.77
2019-02-19T09:01:05.554Z,87.55
2019-02-19T09:04:11.838Z,87.87
2019-02-19T09:07:18.105Z,87.69
2019-02-19T09:10:24.343Z,87.33
2019-02-19T09:13:30.724Z,87.45
2019-02-19T09:16:37.090Z,86.56
2019-02-19T09:19:43.461Z,86.15
2019-02-19T09:22:50.692Z,86.16
2019-02-19T09:25:57.105Z,85.90
2019-02-19T09:29:03.534Z,86.36
2019-02-19T09:32:09.901Z,86.30
2019-02-19T09:35:16.274Z,85.48
2019-02-19T09:38:22.679Z,86.18
2019-02-19T09:41:29.059Z,86.36
2019-02-19T09:44:35.397Z,86.24
2019-02-19T09:47:41.813Z,86.37
2019-02-19T09:50:48.150Z,85.81
2019-02-19T09:53:54.567Z,86.01
2019-02-19T09:57:01.004Z,85.96
2019-02-19T10:00:09.016Z,85.27
2019-02-19T10:03:15.487Z,84.44
2019-02-19T10:06:21.975Z,85.51
2019-02-19T10:09:28.262Z,85.59
2019-02-19T10:12:34.649Z,85.50
2019-02-19T10:15:40.932Z,85.43
2019-02-19T10:18:48.241Z,85.25
2019-02-19T10:21:54.543Z,84.77
2019-02-19T10:25:01.135Z,85.27
2019-02-19T10:28:08.632Z,84.81
2019-02-19T10:31:15.119Z,84.71
2019-02-19T10:34:24.660Z,84.80
2019-02-19T10:37:31.169Z,84.29
2019-02-19T10:40:37.436Z,84.63
2019-02-19T10:43:43.821Z,84.56
2019-02-19T10:46:50.173Z,84.49
2019-02-19T10:49:56.600Z,84.70
2019-02-19T10:53:03.036Z,84.53
2019-02-19T10:56:09.442Z,84.55
2019-02-19T10:59:15.968Z,84.69
2019-02-19T11:02:22.475Z,84.43
2019-02-19T11:05:30.164Z,84.09
2019-02-19T11:08:36.441Z,84.00
2019-02-19T11:11:42.823Z,84.47
2019-02-19T11:14:49.174Z,84.39
2019-02-19T11:17:55.517Z,83.70
2019-02-19T11:21:01.959Z,82.97
2019-02-19T11:24:08.302Z,82.81
2019-02-19T11:27:14.662Z,83.77
2019-02-19T11:30:21.152Z,84.08
2019-02-19T11:33:27.714Z,83.45
2019-02-19T11:36:34.072Z,83.57
2019-02-19T11:39:40.349Z,83.57
2019-02-19T11:42:46.610Z,84.24
2019-02-19T11:45:52.905Z,83.68
2019-02-19T11:48:59.365Z,83.73
2019-02-19T11:52:05.686Z,83.56
2019-02-19T11:55:12.877Z,83.74
2019-02-19T11:58:20.811Z,83.19
2019-02-19T12:01:27.282Z,83.43
2019-02-19T12:04:33.534Z,83.29
2019-02-19T12:07:40.004Z,83.42
2019-02-19T12:10:46.255Z,82.70
2019-02-19T12:13:52.648Z,82.29
2019-02-19T12:16:59.045Z,82.41
2019-02-19T12:20:05.527Z,82.17
2019-02-19T12:23:12.260Z,81.87
2019-02-19T12:26:18.715Z,80.96
2019-02-19T12:29:25.082Z,81.19
2019-02-19T12:32:31.431Z,80.44
2019-02-19T12:35:37.706Z,80.23
2019-02-19T12:38:44.070Z,80.51
2019-02-19T12:41:50.399Z,80.45
2019-02-19T12:44:56.812Z,80.20
2019-02-19T12:48:03.222Z,80.58
2019-02-19T12:51:09.614Z,80.51
2019-02-19T12:54:16.014Z,79.88
2019-02-19T12:57:22.350Z,80.14
2019-02-19T13:00:28.715Z,80.08
2019-02-19T13:03:35.071Z,80.06
2019-02-19T13:06:41.418Z,79.34
2019-02-19T13:09:47.787Z,79.36
2019-02-19T13:12:54.135Z,78.96
2019-02-19T13:16:00.471Z,78.28
2019-02-19T13:19:06.888Z,77.71
2019-02-19T13:22:13.158Z,76.60
2019-02-19T13:25:19.506Z,76.85
2019-02-19T13:28:25.826Z,76.34
2019-02-19T13:31:32.255Z,76.81
2019-02-19T13:34:38.571Z,76.93
2019-02-19T13:37:44.850Z,76.63
2019-02-19T13:40:51.136Z,76.47
2019-02-19T13:43:57.630Z,76.62
2019-02-19T13:47:24.015Z,77.35
2019-02-19T13:50:37.672Z,78.10
2019-02-19T13:53:52.306Z,79.00
2019-02-19T13:57:00.018Z,78.72
2019-02-19T14:00:22.222Z,80.65
2019-02-19T14:03:28.696Z,80.53
2019-02-19T14:06:35.095Z,80.46
2019-02-19T14:09:41.351Z,80.45
2019-02-19T14:12:47.816Z,80.74
2019-02-19T14:16:21.937Z,81.00
2019-02-19T14:19:47.196Z,81.23
2019-02-19T14:23:17.826Z,81.40
2019-02-19T14:26:49.389Z,81.39
2019-02-19T14:30:20.064Z,81.46
2019-02-19T14:33:49.227Z,82.70
2019-02-19T14:37:13.602Z,82.58
2019-02-19T14:40:41.707Z,82.39
2019-02-19T14:44:08.532Z,82.19
2019-02-19T14:47:46.160Z,82.74
2019-02-19T14:51:05.589Z,82.61
2019-02-19T14:54:33.918Z,82.58
2019-02-19T14:57:52.558Z,82.31
2019-02-19T15:01:17.794Z,82.31
2019-02-19T15:04:41.649Z,82.26
2019-02-19T15:08:05.724Z,82.18
2019-02-19T15:11:29.660Z,82.02
2019-02-19T15:14:57.826Z,81.76
2019-02-19T15:18:29.053Z,81.78
2019-02-19T15:21:54.351Z,81.43
2019-02-19T15:25:22.686Z,81.26
2019-02-19T15:29:03.179Z,81.38
2019-02-19T15:32:34.339Z,80.53
2019-02-19T15:35:58.299Z,80.13
2019-02-19T15:39:34.602Z,80.02
2019-02-19T15:43:06.083Z,79.61
2019-02-19T15:46:30.455Z,79.20
2019-02-19T15:49:48.878Z,77.91
2019-02-19T15:53:20.144Z,78.46
2019-02-19T15:56:54.553Z,78.08
2019-02-19T16:00:18.625Z,78.57
2019-02-19T16:03:43.290Z,79.17
2019-02-19T16:06:59.954Z,79.35
2019-02-19T16:10:25.057Z,79.58
2019-02-19T16:13:50.391Z,79.76
2019-02-19T16:17:24.711Z,79.75
2019-02-19T16:20:46.647Z,80.10
2019-02-19T16:24:18.177Z,80.04
2019-02-19T16:27:42.129Z,79.79
2019-02-19T16:31:16.703Z,80.66
2019-02-19T16:34:51.219Z,80.64
2019-02-19T16:38:09.401Z,80.64
2019-02-19T16:41:30.504Z,80.33
2019-02-19T16:44:55.745Z,80.50
2019-02-19T16:48:15.817Z,80.36
2019-02-19T16:51:41.242Z,80.70
2019-02-19T16:54:54.567Z,80.07
2019-02-19T16:58:10.767Z,79.94
2019-02-19T17:01:33.182Z,79.83
2019-02-19T17:05:10.787Z,80.08
2019-02-19T17:08:34.276Z,80.42
2019-02-19T17:11:58.039Z,80.76
2019-02-19T17:15:15.390Z,80.98
2019-02-19T17:18:51.449Z,81.15
2019-02-19T17:22:10.052Z,81.30
2019-02-19T17:25:38.206Z,81.71
2019-02-19T17:28:52.128Z,81.64
2019-02-19T17:32:17.431Z,82.09
2019-02-19T17:35:41.662Z,82.36
2019-02-19T17:39:13.696Z,82.10
2019-02-19T17:42:28.865Z,82.10
2019-02-19T17:45:54.192Z,81.94
2019-02-19T17:49:12.230Z,82.35
2019-02-19T17:52:38.347Z,82.15
2019-02-19T17:55:54.671Z,81.66
2019-02-19T17:59:15.868Z,81.86
2019-02-19T18:02:31.044Z,82.32
2019-02-19T18:05:44.280Z,82.51
2019-02-19T18:09:12.778Z,81.78
2019-02-19T18:12:43.893Z,81.52
2019-02-19T18:16:12.015Z,81.95
2019-02-19T18:19:18.514Z,82.08
2019-02-19T18:22:24.821Z,81.94
2019-02-19T18:25:31.145Z,82.18
2019-02-19T18:28:37.421Z,81.84
2019-02-19T18:31:43.768Z,81.46
2019-02-19T18:34:50.024Z,82.10
2019-02-19T18:37:56.344Z,82.18
2019-02-19T18:41:02.671Z,82.94
2019-02-19T18:44:09.081Z,83.85
2019-02-19T18:47:15.429Z,84.33
2019-02-19T18:50:21.902Z,84.24
2019-02-19T18:53:28.380Z,84.09
2019-02-19T18:56:34.711Z,84.16
2019-02-19T18:59:41.268Z,84.56
2019-02-19T19:02:47.724Z,84.32
2019-02-19T19:05:54.074Z,83.89
2019-02-19T19:09:00.628Z,83.83
2019-02-19T19:12:08.472Z,83.81
2019-02-19T19:15:14.864Z,84.18
2019-02-19T19:18:21.300Z,83.76
2019-02-19T19:21:27.789Z,83.64
2019-02-19T19:24:34.110Z,84.01
2019-02-19T19:27:40.445Z,83.51
2019-02-19T19:30:46.760Z,83.54
2019-02-19T19:33:53.125Z,83.81
2019-02-19T19:36:59.439Z,83.76
2019-02-19T19:40:06.117Z,83.72
2019-02-19T19:43:12.386Z,83.69
2019-02-19T19:46:18.822Z,83.43
2019-02-19T19:49:25.189Z,83.42
2019-02-19T19:52:31.500Z,83.17
2019-02-19T19:55:38.837Z,83.59
2019-02-19T19:58:45.150Z,83.26
2019-02-19T20:01:51.483Z,83.61
2019-02-19T20:04:58.803Z,83.14
2019-02-19T20:08:05.198Z,83.33
2019-02-19T20:11:11.564Z,83.42
2019-02-19T20:14:18.029Z,83.37
2019-02-19T20:17:24.373Z,83.11
2019-02-19T20:20:30.742Z,83.05
2019-02-19T20:23:37.274Z,83.10
2019-02-19T20:26:43.639Z,82.73
2019-02-19T20:29:50.061Z,83.11
2019-02-19T20:32:56.445Z,83.17
2019-02-19T20:36:02.898Z,83.32
2019-02-19T20:39:09.415Z,82.60
2019-02-19T20:42:17.183Z,82.55
2019-02-19T20:45:24.406Z,82.38
2019-02-19T20:48:33.851Z,81.86
2019-02-19T20:51:43.377Z,82.37
2019-02-19T20:54:49.787Z,82.06
2019-02-19T20:57:56.389Z,81.70
2019-02-19T21:01:03.842Z,81.66
2019-02-19T21:04:10.273Z,81.89
2019-02-19T21:07:16.715Z,82.01
2019-02-19T21:10:23.143Z,82.01
2019-02-19T21:13:29.508Z,81.60
2019-02-19T21:16:36.036Z,81.74
2019-02-19T21:19:42.594Z,81.37
2019-02-19T21:22:48.936Z,81.47
2019-02-19T21:25:55.492Z,81.33
2019-02-19T21:29:01.991Z,81.50
2019-02-19T21:32:08.331Z,81.40
2019-02-19T21:35:14.621Z,81.02
2019-02-19T21:38:21.146Z,81.15
2019-02-19T21:41:27.713Z,80.95
2019-02-19T21:44:37.184Z,81.16
2019-02-19T21:47:43.381Z,81.07
2019-02-19T21:50:49.709Z,80.38
2019-02-19T21:53:56.321Z,81.08
2019-02-19T21:57:02.641Z,80.93
2019-02-19T22:00:12.123Z,80.92
2019-02-19T22:03:20.133Z,81.17
2019-02-19T22:06:26.605Z,81.04
2019-02-19T22:09:33.093Z,81.31
2019-02-19T22:12:39.420Z,81.13
2019-02-19T22:15:45.665Z,81.08
2019-02-19T22:18:52.034Z,80.54
2019-02-19T22:22:03.889Z,81.11
2019-02-19T22:25:10.313Z,81.25
2019-02-19T22:28:16.700Z,81.07
2019-02-19T22:31:23.148Z,81.11
2019-02-19T22:34:29.497Z,80.56
2019-02-19T22:37:35.822Z,80.81
2019-02-19T22:40:42.159Z,81.02
2019-02-19T22:43:48.577Z,81.05
2019-02-19T22:46:55.006Z,81.26
2019-02-19T22:50:01.321Z,81.09
2019-02-19T22:53:26.639Z,81.34
2019-02-19T22:56:38.757Z,81.09
2019-02-19T22:59:45.124Z,81.09
2019-02-19T23:02:51.485Z,81.57
2019-02-19T23:05:57.785Z,81.79
2019-02-19T23:09:05.752Z,81.38
2019-02-19T23:12:13.260Z,81.73
2019-02-19T23:15:19.686Z,81.74
2019-02-19T23:18:26.134Z,82.42
2019-02-19T23:21:32.548Z,82.48
2019-02-19T23:24:38.964Z,82.48
2019-02-19T23:27:45.370Z,83.08
2019-02-19T23:30:51.875Z,82.82
2019-02-19T23:33:58.313Z,83.21
2019-02-19T23:37:24.951Z,83.21
2019-02-19T23:40:31.257Z,83.90
2019-02-19T23:43:37.501Z,83.41
2019-02-19T23:46:44.087Z,83.77
2019-02-19T23:49:50.433Z,83.58
2019-02-19T23:52:56.802Z,83.95
2019-02-19T23:56:03.094Z,84.03
2019-02-19T23:59:09.380Z,83.91
